Time;durP1;ratioP1;P1;durP2;ratioP2;P2;SDS_P1;SDS_P2;PMS_P1;PMS_P2;Temp;Humidity;BMP_temperature;BMP_pressure;BME280_temperature;BME280_humidity;BME280_pressure;Samples;Min_cycle;Max_cycle;Signal;HPM_P1;HPM_P2
2024/04/11 00:00:04;;;;;;;;;;;;;;;;;;5469622;26;19928;-71
2024/04/11 00:02:31;;;;;;;;;;;;;;;;;;5481085;26;19928;-71
2024/04/11 00:04:59;;;;;;;;;;;;;;;;;;5481001;26;19934;-71
2024/04/11 00:07:28;;;;;;;;;;;;;;;;;;5480736;26;19947;-70
2024/04/11 00:09:54;;;;;;;;;;;;;;;;;;5481080;26;19938;-71
2024/04/11 00:12:23;;;;;;;;;;;;;;;;;;5446313;26;20012;-70
2024/04/11 00:14:49;;;;;;;;;;;;;;;;;;5444756;26;19935;-70
2024/04/11 00:17:18;;;;;;;;;;;;;;;;;;5444382;26;20554;-70
2024/04/11 00:19:44;;;;;;;;;;;;;;;;;;5446274;26;19935;-70
2024/04/11 00:22:13;;;;;;;;;;;;;;;;;;5445744;26;19994;-71
2024/04/11 00:24:39;;;;;;;;;;;;;;;;;;5454147;26;19938;-70
2024/04/11 00:27:08;;;;;;;;;;;;;;;;;;5478069;26;19935;-70
2024/04/11 00:29:35;;;;;;;;;;;;;;;;;;5444211;26;19928;-70
2024/04/11 00:32:04;;;;;;;;;;;;;;;;;;5459732;26;19946;-70
2024/04/11 00:34:32;;;;;;;;;;;;;;;;;;5480128;26;19928;-70
2024/04/11 00:37:02;;;;;;;;;;;;;;;;;;5480647;26;20021;-70
2024/04/11 00:39:28;;;;;;;;;;;;;;;;;;5458795;26;19997;-71
2024/04/11 00:41:57;;;;;;;;;;;;;;;;;;5481917;26;19997;-71
2024/04/11 00:44:23;;;;;;;;;;;;;;;;;;5482412;26;19928;-71
2024/04/11 00:46:51;;;;;;;;;;;;;;;;;;5484161;26;19959;-71
2024/04/11 00:49:18;;;;;;;;;;;;;;;;;;5485573;26;19928;-71
2024/04/11 00:51:47;;;;;;;;;;;;;;;;;;5484372;26;19928;-72
2024/04/11 00:54:15;;;;;;;;;;;;;;;;;;5483757;26;19928;-71
2024/04/11 00:56:44;;;;;;;;;;;;;;;;;;5482644;26;19956;-71
2024/04/11 00:59:10;;;;;;;;;;;;;;;;;;5447844;26;19935;-71
2024/04/11 01:01:39;;;;;;;;;;;;;;;;;;5455906;26;20402;-72
2024/04/11 01:04:06;;;;;;;;;;;;;;;;;;5483619;26;20276;-71
2024/04/11 01:06:35;;;;;;;;;;;;;;;;;;5483800;26;20375;-71
2024/04/11 01:09:01;;;;;;;;;;;;;;;;;;5485249;26;20374;-71
2024/04/11 01:11:30;;;;;;;;;;;;;;;;;;5485697;26;19928;-71
2024/04/11 01:13:56;;;;;;;;;;;;;;;;;;5485468;26;19932;-71
2024/04/11 01:16:25;;;;;;;;;;;;;;;;;;5485365;26;19953;-72
2024/04/11 01:18:55;;;;;;;;;;;;;;;;;;5484240;26;19928;-72
2024/04/11 01:21:26;;;;;;;;;;;;;;;;;;5485882;26;20399;-71
2024/04/11 01:23:53;;;;;;;;;;;;;;;;;;5484731;26;20391;-71
2024/04/11 01:26:22;;;;;;;;;;;;;;;;;;5484162;26;20037;-71
2024/04/11 01:28:48;;;;;;;;;;;;;;;;;;5483366;26;19928;-72
2024/04/11 01:31:17;;;;;;;;;;;;;;;;;;5483247;26;20014;-71
2024/04/11 01:33:46;;;;;;;;;;;;;;;;;;5483290;26;19928;-71
2024/04/11 01:36:16;;;;;;;;;;;;;;;;;;5465281;26;20459;-71
2024/04/11 01:38:42;;;;;;;;;;;;;;;;;;5447007;26;19932;-71
2024/04/11 01:41:11;;;;;;;;;;;;;;;;;;5446497;26;20349;-71
2024/04/11 01:43:37;;;;;;;;;;;;;;;;;;5446704;26;19935;-71
2024/04/11 01:46:07;;;;;;;;;;;;;;;;;;5446282;26;19964;-71
2024/04/11 01:48:33;;;;;;;;;;;;;;;;;;5447542;26;19952;-71
2024/04/11 01:51:02;;;;;;;;;;;;;;;;;;5448417;26;20488;-71
2024/04/11 01:53:28;;;;;;;;;;;;;;;;;;5448162;26;19956;-71
2024/04/11 01:55:58;;;;;;;;;;;;;;;;;;5452234;26;19939;-71
2024/04/11 01:58:24;;;;;;;;;;;;;;;;;;5484368;26;19932;-70
2024/04/11 02:00:53;;;;;;;;;;;;;;;;;;5483826;26;19928;-71
2024/04/11 02:03:22;;;;;;;;;;;;;;;;;;5482525;26;19928;-71
2024/04/11 02:05:51;;;;;;;;;;;;;;;;;;5482729;26;20349;-71
2024/04/11 02:08:17;;;;;;;;;;;;;;;;;;5482495;26;19928;-71
2024/04/11 02:10:46;;;;;;;;;;;;;;;;;;5457312;26;20275;-71
2024/04/11 02:13:12;;;;;;;;;;;;;;;;;;5446383;26;19936;-71
2024/04/11 02:15:41;;;;;;;;;;;;;;;;;;5446101;26;20299;-71
2024/04/11 02:18:07;;;;;;;;;;;;;;;;;;5446342;26;20285;-71
2024/04/11 02:20:36;;;;;;;;;;;;;;;;;;5446525;26;19936;-71
2024/04/11 02:23:04;;;;;;;;;;;;;;;;;;5445971;26;19960;-71
2024/04/11 02:25:33;;;;;;;;;;;;;;;;;;5469469;26;19928;-71
2024/04/11 02:27:59;;;;;;;;;;;;;;;;;;5482291;26;19935;-71
2024/04/11 02:30:28;;;;;;;;;;;;;;;;;;5484536;26;19928;-71
2024/04/11 02:32:54;;;;;;;;;;;;;;;;;;5484773;26;19928;-71
2024/04/11 02:35:23;;;;;;;;;;;;;;;;;;5484619;26;19935;-71
2024/04/11 02:37:50;;;;;;;;;;;;;;;;;;5484581;26;20256;-71
2024/04/11 02:40:19;;;;;;;;;;;;;;;;;;5484923;26;19939;-71
2024/04/11 02:42:45;;;;;;;;;;;;;;;;;;5484563;26;20839;-71
2024/04/11 02:45:14;;;;;;;;;;;;;;;;;;5451989;26;19935;-71
2024/04/11 02:47:41;;;;;;;;;;;;;;;;;;5448259;26;19935;-70
2024/04/11 02:50:15;;;;;;;;;;;;;;;;;;5448134;26;19929;-71
2024/04/11 02:52:41;;;;;;;;;;;;;;;;;;5448198;26;20403;-71
2024/04/11 02:55:10;;;;;;;;;;;;;;;;;;5474119;26;19928;-71
2024/04/11 02:57:36;;;;;;;;;;;;;;;;;;5484230;26;19928;-71
2024/04/11 03:00:06;;;;;;;;;;;;;;;;;;5483112;26;19928;-71
2024/04/11 03:02:34;;;;;;;;;;;;;;;;;;5447585;26;19936;-71
2024/04/11 03:05:02;;;;;;;;;;;;;;;;;;5462597;26;20012;-71
2024/04/11 03:07:29;;;;;;;;;;;;;;;;;;5484185;26;19928;-71
2024/04/11 03:09:58;;;;;;;;;;;;;;;;;;5483794;26;19927;-71
2024/04/11 03:12:24;;;;;;;;;;;;;;;;;;5484030;26;19935;-71
2024/04/11 03:14:52;;;;;;;;;;;;;;;;;;5484356;26;19927;-71
2024/04/11 03:17:18;;;;;;;;;;;;;;;;;;5479850;26;19928;-71
2024/04/11 03:19:47;;;;;;;;;;;;;;;;;;5447734;26;19929;-71
2024/04/11 03:22:14;;;;;;;;;;;;;;;;;;5447496;26;19929;-71
2024/04/11 03:24:44;;;;;;;;;;;;;;;;;;5457427;26;19932;-71
2024/04/11 03:27:10;;;;;;;;;;;;;;;;;;5483219;26;19928;-71
2024/04/11 03:29:39;;;;;;;;;;;;;;;;;;5483888;26;20061;-71
2024/04/11 03:32:07;;;;;;;;;;;;;;;;;;5483626;26;19935;-71
2024/04/11 03:34:36;;;;;;;;;;;;;;;;;;5473614;26;20307;-71
2024/04/11 03:37:03;;;;;;;;;;;;;;;;;;5447146;26;19929;-71
2024/04/11 03:39:32;;;;;;;;;;;;;;;;;;5447327;26;20535;-71
2024/04/11 03:42:01;;;;;;;;;;;;;;;;;;5447358;26;19939;-71
2024/04/11 03:44:30;;;;;;;;;;;;;;;;;;5447024;26;19963;-71
2024/04/11 03:46:58;;;;;;;;;;;;;;;;;;5447196;26;19928;-71
2024/04/11 03:49:27;;;;;;;;;;;;;;;;;;5447020;26;19937;-71
2024/04/11 03:51:55;;;;;;;;;;;;;;;;;;5448053;26;20271;-71
2024/04/11 03:54:23;;;;;;;;;;;;;;;;;;5446897;26;19932;-71
2024/04/11 03:56:50;;;;;;;;;;;;;;;;;;5446594;26;19929;-71
2024/04/11 03:59:19;;;;;;;;;;;;;;;;;;5447332;26;19993;-71
2024/04/11 04:01:45;;;;;;;;;;;;;;;;;;5447123;26;19932;-72
2024/04/11 04:04:14;;;;;;;;;;;;;;;;;;5478366;26;19935;-70
2024/04/11 04:06:42;;;;;;;;;;;;;;;;;;5483135;26;19995;-71
2024/04/11 04:09:11;;;;;;;;;;;;;;;;;;5483904;26;19938;-71
2024/04/11 04:11:37;;;;;;;;;;;;;;;;;;5483990;26;19932;-71
2024/04/11 04:14:08;;;;;;;;;;;;;;;;;;5482431;26;20267;-69
2024/04/11 04:16:35;;;;;;;;;;;;;;;;;;5482172;26;19939;-70
2024/04/11 04:19:04;;;;;;;;;;;;;;;;;;5483075;26;19936;-71
2024/04/11 04:21:31;;;;;;;;;;;;;;;;;;5482951;26;20263;-70
2024/04/11 04:24:02;;;;;;;;;;;;;;;;;;5482319;26;19932;-71
2024/04/11 04:26:30;;;;;;;;;;;;;;;;;;5460697;26;20208;-71
2024/04/11 04:28:59;;;;;;;;;;;;;;;;;;5482469;26;19968;-71
2024/04/11 04:31:25;;;;;;;;;;;;;;;;;;5482439;26;19975;-71
2024/04/11 04:33:54;;;;;;;;;;;;;;;;;;5482799;26;19928;-70
2024/04/11 04:36:20;;;;;;;;;;;;;;;;;;5482949;26;19939;-71
2024/04/11 04:38:49;;;;;;;;;;;;;;;;;;5482572;26;20278;-71
2024/04/11 04:41:16;;;;;;;;;;;;;;;;;;5482752;26;19938;-71
2024/04/11 04:43:45;;;;;;;;;;;;;;;;;;5480930;26;20371;-71
2024/04/11 04:46:13;;;;;;;;;;;;;;;;;;5482146;26;19935;-70
2024/04/11 04:48:41;;;;;;;;;;;;;;;;;;5482118;26;20313;-71
2024/04/11 04:51:11;;;;;;;;;;;;;;;;;;5481457;26;19935;-70
2024/04/11 04:53:40;;;;;;;;;;;;;;;;;;5480292;26;19932;-72
2024/04/11 04:56:09;;;;;;;;;;;;;;;;;;5479750;26;19932;-71
2024/04/11 04:58:38;;;;;;;;;;;;;;;;;;5479745;26;20298;-70
2024/04/11 05:01:04;;;;;;;;;;;;;;;;;;5449654;26;20383;-70
2024/04/11 05:03:33;;;;;;;;;;;;;;;;;;5443747;26;19966;-71
2024/04/11 05:06:02;;;;;;;;;;;;;;;;;;5443339;26;19929;-71
2024/04/11 05:08:32;;;;;;;;;;;;;;;;;;5443596;26;19935;-70
2024/04/11 05:10:58;;;;;;;;;;;;;;;;;;5443123;26;19929;-71
2024/04/11 05:13:29;;;;;;;;;;;;;;;;;;5443788;26;19944;-72
2024/04/11 05:15:56;;;;;;;;;;;;;;;;;;5445598;26;19928;-72
2024/04/11 05:18:24;;;;;;;;;;;;;;;;;;5446235;26;20369;-71
2024/04/11 05:20:51;;;;;;;;;;;;;;;;;;5444123;26;19929;-72
2024/04/11 05:23:20;;;;;;;;;;;;;;;;;;5442823;26;19935;-71
2024/04/11 05:25:46;;;;;;;;;;;;;;;;;;5470431;26;19928;-72
2024/04/11 05:28:16;;;;;;;;;;;;;;;;;;5482533;26;19940;-71
2024/04/11 05:30:43;;;;;;;;;;;;;;;;;;5482954;26;19968;-69
2024/04/11 05:33:13;;;;;;;;;;;;;;;;;;5480859;26;19997;-71
2024/04/11 05:35:39;;;;;;;;;;;;;;;;;;5482955;26;19936;-67
2024/04/11 05:38:10;;;;;;;;;;;;;;;;;;5482672;26;19983;-67
2024/04/11 05:40:36;;;;;;;;;;;;;;;;;;5482902;26;19928;-71
2024/04/11 05:43:06;;;;;;;;;;;;;;;;;;5482494;26;19928;-69
2024/04/11 05:45:33;;;;;;;;;;;;;;;;;;5482473;26;20020;-69
2024/04/11 05:48:03;;;;;;;;;;;;;;;;;;5482932;26;19959;-69
2024/04/11 05:50:29;;;;;;;;;;;;;;;;;;5482991;26;19940;-73
2024/04/11 05:52:58;;;;;;;;;;;;;;;;;;5484630;26;19927;-73
2024/04/11 05:55:24;;;;;;;;;;;;;;;;;;5485123;26;19928;-74
2024/04/11 05:57:54;;;;;;;;;;;;;;;;;;5484415;26;20002;-73
2024/04/11 06:00:23;;;;;;;;;;;;;;;;;;5484106;26;19928;-73
2024/04/11 06:02:52;;;;;;;;;;;;;;;;;;5483488;26;19958;-72
2024/04/11 06:05:20;;;;;;;;;;;;;;;;;;5487803;26;19935;-74
2024/04/11 06:07:50;;;;;;;;;;;;;;;;;;5471669;26;20389;-73
2024/04/11 06:10:20;;;;;;;;;;;;;;;;;;5446238;26;19935;-74
2024/04/11 06:12:49;;;;;;;;;;;;;;;;;;5446313;26;20389;-75
2024/04/11 06:15:19;;;;;;;;;;;;;;;;;;5445996;26;19940;-74
2024/04/11 06:17:48;;;;;;;;;;;;;;;;;;5446671;26;19932;-74
2024/04/11 06:20:16;;;;;;;;;;;;;;;;;;5451391;26;20367;-74
2024/04/11 06:22:51;;;;;;;;;;;;;;;;;;5447921;26;19929;-73
2024/04/11 06:25:17;;;;;;;;;;;;;;;;;;5462052;26;20279;-74
2024/04/11 06:27:46;;;;;;;;;;;;;;;;;;5447140;26;19997;-74
2024/04/11 06:30:14;;;;;;;;;;;;;;;;;;5447200;26;19928;-74
2024/04/11 06:32:43;;;;;;;;;;;;;;;;;;5445720;26;19928;-74
2024/04/11 06:35:09;;;;;;;;;;;;;;;;;;5481135;26;19928;-71
2024/04/11 06:37:38;;;;;;;;;;;;;;;;;;5481297;26;19935;-71
2024/04/11 06:40:12;;;;;;;;;;;;;;;;;;5481705;26;19935;-71
2024/04/11 06:42:40;;;;;;;;;;;;;;;;;;5457188;26;20094;-71
2024/04/11 06:45:14;;;;;;;;;;;;;;;;;;5445903;26;20489;-70
2024/04/11 06:47:40;;;;;;;;;;;;;;;;;;5445453;26;19929;-73
2024/04/11 06:50:09;;;;;;;;;;;;;;;;;;5446000;26;19936;-69
2024/04/11 06:52:36;;;;;;;;;;;;;;;;;;5446645;26;20521;-70
2024/04/11 06:55:05;;;;;;;;;;;;;;;;;;5447251;26;19928;-71
2024/04/11 06:57:36;;;;;;;;;;;;;;;;;;5481076;26;20287;-70
2024/04/11 07:00:12;;;;;;;;;;;;;;;;;;5451204;26;19932;-72
2024/04/11 07:02:40;;;;;;;;;;;;;;;;;;5445586;26;20529;-72
2024/04/11 07:05:12;;;;;;;;;;;;;;;;;;5445351;26;19936;-70
2024/04/11 07:07:39;;;;;;;;;;;;;;;;;;5444659;26;19936;-70
2024/04/11 07:10:15;;;;;;;;;;;;;;;;;;5444779;26;19937;-70
2024/04/11 07:12:41;;;;;;;;;;;;;;;;;;5445256;26;19929;-70
2024/04/11 07:15:12;;;;;;;;;;;;;;;;;;5445639;26;19928;-70
2024/04/11 07:17:45;;;;;;;;;;;;;;;;;;5444955;26;19929;-70
2024/04/11 07:20:25;;;;;;;;;;;;;;;;;;5446126;26;19928;-72
2024/04/11 07:22:53;;;;;;;;;;;;;;;;;;5464430;26;20902;-70
2024/04/11 07:25:22;;;;;;;;;;;;;;;;;;5463196;26;19936;-70
2024/04/11 07:27:49;;;;;;;;;;;;;;;;;;5446909;26;20284;-71
2024/04/11 07:30:18;;;;;;;;;;;;;;;;;;5447302;26;19936;-71
2024/04/11 07:32:45;;;;;;;;;;;;;;;;;;5448106;26;19936;-70
2024/04/11 07:35:15;;;;;;;;;;;;;;;;;;5446987;26;19928;-71
2024/04/11 07:37:41;;;;;;;;;;;;;;;;;;5447306;26;19993;-68
2024/04/11 07:40:27;;;;;;;;;;;;;;;;;;5446587;26;19928;-66
2024/04/11 07:42:55;;;;;;;;;;;;;;;;;;5446426;26;19964;-70
2024/04/11 07:45:30;;;;;;;;;;;;;;;;;;5446671;26;19997;-71
2024/04/11 07:47:58;;;;;;;;;;;;;;;;;;5446086;26;19939;-71
2024/04/11 07:50:28;;;;;;;;;;;;;;;;;;5446249;26;19978;-73
2024/04/11 07:52:57;;;;;;;;;;;;;;;;;;5446657;26;19928;-71
2024/04/11 07:55:27;;;;;;;;;;;;;;;;;;5477375;26;19981;-71
2024/04/11 07:57:53;;;;;;;;;;;;;;;;;;5482192;26;19979;-72
2024/04/11 08:00:27;;;;;;;;;;;;;;;;;;5481819;26;19928;-70
2024/04/11 08:02:56;;;;;;;;;;;;;;;;;;5480626;26;20264;-70
2024/04/11 08:05:25;;;;;;;;;;;;;;;;;;5480428;26;20271;-71
2024/04/11 08:07:53;;;;;;;;;;;;;;;;;;5453062;26;19951;-69
2024/04/11 08:10:27;;;;;;;;;;;;;;;;;;5444172;26;19929;-70
2024/04/11 08:12:53;;;;;;;;;;;;;;;;;;5444283;26;19928;-71
2024/04/11 08:15:22;;;;;;;;;;;;;;;;;;5444156;26;20485;-70
2024/04/11 08:17:48;;;;;;;;;;;;;;;;;;5444049;26;19928;-71
2024/04/11 08:20:17;;;;;;;;;;;;;;;;;;5447307;26;19954;-71
2024/04/11 08:22:43;;;;;;;;;;;;;;;;;;5445777;26;19929;-71
2024/04/11 08:25:12;;;;;;;;;;;;;;;;;;5477951;26;19993;-73
2024/04/11 08:27:38;;;;;;;;;;;;;;;;;;5482197;26;19939;-73
2024/04/11 08:30:06;;;;;;;;;;;;;;;;;;5482438;26;19927;-70
2024/04/11 08:32:32;;;;;;;;;;;;;;;;;;5483001;26;19928;-71
2024/04/11 08:35:04;;;;;;;;;;;;;;;;;;5482238;26;19932;-73
2024/04/11 08:37:30;;;;;;;;;;;;;;;;;;5482346;26;19935;-74
2024/04/11 08:39:59;;;;;;;;;;;;;;;;;;5482679;26;19960;-71
2024/04/11 08:42:28;;;;;;;;;;;;;;;;;;5445775;26;19929;-70
2024/04/11 08:44:58;;;;;;;;;;;;;;;;;;5444480;26;20275;-71
2024/04/11 08:47:24;;;;;;;;;;;;;;;;;;5443982;26;19936;-70
2024/04/11 08:49:53;;;;;;;;;;;;;;;;;;5444712;26;20008;-71
2024/04/11 08:52:19;;;;;;;;;;;;;;;;;;5461222;26;19947;-71
2024/04/11 08:54:48;;;;;;;;;;;;;;;;;;5479723;26;20019;-73
2024/04/11 08:57:14;;;;;;;;;;;;;;;;;;5475743;26;20345;-73
2024/04/11 08:59:44;;;;;;;;;;;;;;;;;;5443334;26;19932;-71
2024/04/11 09:02:10;;;;;;;;;;;;;;;;;;5445328;26;20390;-71
2024/04/11 09:04:39;;;;;;;;;;;;;;;;;;5446824;26;20000;-72
2024/04/11 09:07:05;;;;;;;;;;;;;;;;;;5447355;26;19932;-71
2024/04/11 09:09:33;;;;;;;;;;;;;;;;;;5448718;26;19929;-72
2024/04/11 09:12:00;;;;;;;;;;;;;;;;;;5449245;26;19928;-69
2024/04/11 09:14:29;;;;;;;;;;;;;;;;;;5449806;26;20275;-69
2024/04/11 09:17:00;;;;;;;;;;;;;;;;;;5449021;26;19928;-71
2024/04/11 09:19:32;;;;;;;;;;;;;;;;;;5468123;26;19934;-71
2024/04/11 09:21:59;;;;;;;;;;;;;;;;;;5485536;26;19942;-71
2024/04/11 09:24:29;;;;;;;;;;;;;;;;;;5484860;26;19928;-71
2024/04/11 09:26:56;;;;;;;;;;;;;;;;;;5484359;26;20393;-72
2024/04/11 09:29:25;;;;;;;;;;;;;;;;;;5484620;26;19928;-72
2024/04/11 09:31:51;;;;;;;;;;;;;;;;;;5483238;26;19935;-70
2024/04/11 09:34:20;;;;;;;;;;;;;;;;;;5484083;26;19928;-71
2024/04/11 09:36:47;;;;;;;;;;;;;;;;;;5483006;26;20379;-71
2024/04/11 09:39:19;;;;;;;;;;;;;;;;;;5483080;26;19948;-71
2024/04/11 09:41:50;;;;;;;;;;;;;;;;;;5482763;26;19939;-72
2024/04/11 09:44:19;;;;;;;;;;;;;;;;;;5483188;26;19972;-71
2024/04/11 09:46:45;;;;;;;;;;;;;;;;;;5482571;26;19928;-71
2024/04/11 09:49:13;;;;;;;;;;;;;;;;;;5465639;26;19928;-71
2024/04/11 09:51:41;;;;;;;;;;;;;;;;;;5446115;26;20393;-73
2024/04/11 09:54:13;;;;;;;;;;;;;;;;;;5446260;26;19935;-71
2024/04/11 09:56:39;;;;;;;;;;;;;;;;;;5446436;26;19939;-71
2024/04/11 09:59:09;;;;;;;;;;;;;;;;;;5447462;26;19944;-71
2024/04/11 10:01:38;;;;;;;;;;;;;;;;;;5447950;26;19928;-71
2024/04/11 10:04:13;;;;;;;;;;;;;;;;;;5448264;26;19937;-70
2024/04/11 10:06:41;;;;;;;;;;;;;;;;;;5448839;26;19928;-70
2024/04/11 10:09:11;;;;;;;;;;;;;;;;;;5447867;26;19928;-71
2024/04/11 10:11:37;;;;;;;;;;;;;;;;;;5447912;26;19936;-71
2024/04/11 10:14:07;;;;;;;;;;;;;;;;;;5446843;26;19937;-71
2024/04/11 10:16:37;;;;;;;;;;;;;;;;;;5454447;26;20304;-70
2024/04/11 10:19:12;;;;;;;;;;;;;;;;;;5484158;26;19932;-65
2024/04/11 10:21:38;;;;;;;;;;;;;;;;;;5482869;26;19928;-65
2024/04/11 10:24:07;;;;;;;;;;;;;;;;;;5480367;26;19928;-70
2024/04/11 10:26:33;;;;;;;;;;;;;;;;;;5481542;26;19928;-70
2024/04/11 10:29:02;;;;;;;;;;;;;;;;;;5481713;26;19936;-70
2024/04/11 10:31:28;;;;;;;;;;;;;;;;;;5481499;26;20330;-70
2024/04/11 10:33:58;;;;;;;;;;;;;;;;;;5481321;26;19939;-70
2024/04/11 10:36:25;;;;;;;;;;;;;;;;;;5481667;26;19928;-70
2024/04/11 10:38:57;;;;;;;;;;;;;;;;;;5481925;26;20007;-69
2024/04/11 10:41:23;;;;;;;;;;;;;;;;;;5481441;26;19928;-69
2024/04/11 10:43:52;;;;;;;;;;;;;;;;;;5483152;26;20534;-69
2024/04/11 10:46:20;;;;;;;;;;;;;;;;;;5485335;26;19935;-70
2024/04/11 10:48:52;;;;;;;;;;;;;;;;;;5484030;26;19939;-71
2024/04/11 10:51:20;;;;;;;;;;;;;;;;;;5482898;26;20291;-71
2024/04/11 10:53:54;;;;;;;;;;;;;;;;;;5481958;26;19928;-71
2024/04/11 10:56:21;;;;;;;;;;;;;;;;;;5476902;26;20263;-71
2024/04/11 10:58:53;;;;;;;;;;;;;;;;;;5444604;26;19937;-71
2024/04/11 11:01:19;;;;;;;;;;;;;;;;;;5445411;26;20318;-71
2024/04/11 11:03:54;;;;;;;;;;;;;;;;;;5445051;26;19928;-71
2024/04/11 11:06:24;;;;;;;;;;;;;;;;;;5445318;26;19992;-71
2024/04/11 11:08:54;;;;;;;;;;;;;;;;;;5445067;26;19936;-71
2024/04/11 11:11:21;;;;;;;;;;;;;;;;;;5445117;26;19928;-71
2024/04/11 11:13:52;;;;;;;;;;;;;;;;;;5446779;26;19932;-71
2024/04/11 11:16:21;;;;;;;;;;;;;;;;;;5449774;26;19977;-71
2024/04/11 11:18:51;;;;;;;;;;;;;;;;;;5482558;26;20504;-72
2024/04/11 11:21:17;;;;;;;;;;;;;;;;;;5481620;26;19977;-71
2024/04/11 11:23:46;;;;;;;;;;;;;;;;;;5480726;26;19928;-71
2024/04/11 11:26:12;;;;;;;;;;;;;;;;;;5480973;26;20398;-70
2024/04/11 11:28:41;;;;;;;;;;;;;;;;;;5480569;26;19927;-70
2024/04/11 11:31:15;;;;;;;;;;;;;;;;;;5463903;26;20264;-70
2024/04/11 11:33:49;;;;;;;;;;;;;;;;;;5444590;26;19928;-70
2024/04/11 11:36:17;;;;;;;;;;;;;;;;;;5444775;26;19972;-71
2024/04/11 11:38:48;;;;;;;;;;;;;;;;;;5444246;26;20267;-70
2024/04/11 11:41:15;;;;;;;;;;;;;;;;;;5445915;26;19935;-71
2024/04/11 11:43:54;;;;;;;;;;;;;;;;;;5446787;26;19935;-71
2024/04/11 11:46:30;;;;;;;;;;;;;;;;;;5470432;26;20420;-70
2024/04/11 11:48:59;;;;;;;;;;;;;;;;;;5452724;26;20410;-72
2024/04/11 11:51:28;;;;;;;;;;;;;;;;;;5444843;26;19940;-71
2024/04/11 11:54:00;;;;;;;;;;;;;;;;;;5444727;26;20335;-70
2024/04/11 11:56:31;;;;;;;;;;;;;;;;;;5444596;26;19929;-70
2024/04/11 11:59:02;;;;;;;;;;;;;;;;;;5444349;26;20884;-70
2024/04/11 12:01:29;;;;;;;;;;;;;;;;;;5444289;26;19961;-70
2024/04/11 12:03:59;;;;;;;;;;;;;;;;;;5443470;26;20244;-72
2024/04/11 12:06:33;;;;;;;;;;;;;;;;;;5444338;26;20763;-72
2024/04/11 12:09:09;;;;;;;;;;;;;;;;;;5443764;26;19928;-72
2024/04/11 12:11:40;;;;;;;;;;;;;;;;;;5456515;26;20011;-72
2024/04/11 12:14:22;;;;;;;;;;;;;;;;;;5482134;26;19928;-71
2024/04/11 12:16:52;;;;;;;;;;;;;;;;;;5482118;26;19984;-71
2024/04/11 12:19:24;;;;;;;;;;;;;;;;;;5481901;26;19932;-71
2024/04/11 12:21:51;;;;;;;;;;;;;;;;;;5479918;26;20055;-72
2024/04/11 12:24:20;;;;;;;;;;;;;;;;;;5479819;26;20427;-71
2024/04/11 12:26:49;;;;;;;;;;;;;;;;;;5479327;26;19939;-71
2024/04/11 12:29:18;;;;;;;;;;;;;;;;;;5479992;26;19935;-71
2024/04/11 12:31:44;;;;;;;;;;;;;;;;;;5479856;26;19932;-71
2024/04/11 12:34:14;;;;;;;;;;;;;;;;;;5479587;26;20321;-71
2024/04/11 12:36:56;;;;;;;;;;;;;;;;;;5478827;26;19939;-71
2024/04/11 12:39:32;;;;;;;;;;;;;;;;;;5459760;26;19976;-71
2024/04/11 12:42:00;;;;;;;;;;;;;;;;;;5444555;26;20367;-72
2024/04/11 12:44:35;;;;;;;;;;;;;;;;;;5456683;26;19928;-71
2024/04/11 12:47:01;;;;;;;;;;;;;;;;;;5482616;26;20305;-71
2024/04/11 12:49:30;;;;;;;;;;;;;;;;;;5482154;26;19960;-72
2024/04/11 12:51:57;;;;;;;;;;;;;;;;;;5481940;26;19927;-71
2024/04/11 12:54:26;;;;;;;;;;;;;;;;;;5482234;26;20267;-72
2024/04/11 12:56:52;;;;;;;;;;;;;;;;;;5454458;26;19936;-71
2024/04/11 12:59:28;;;;;;;;;;;;;;;;;;5446719;26;20474;-71
2024/04/11 13:01:55;;;;;;;;;;;;;;;;;;5445377;26;19940;-71
2024/04/11 13:04:26;;;;;;;;;;;;;;;;;;5445962;26;20005;-71
2024/04/11 13:06:58;;;;;;;;;;;;;;;;;;5445360;26;19968;-72
2024/04/11 13:09:31;;;;;;;;;;;;;;;;;;5457076;26;19928;-72
2024/04/11 13:11:57;;;;;;;;;;;;;;;;;;5481022;26;20436;-72
2024/04/11 13:14:27;;;;;;;;;;;;;;;;;;5457925;26;19996;-71
2024/04/11 13:17:00;;;;;;;;;;;;;;;;;;5479248;26;20021;-72
2024/04/11 13:19:34;;;;;;;;;;;;;;;;;;5479750;26;19931;-71
2024/04/11 13:22:02;;;;;;;;;;;;;;;;;;5479133;26;20668;-72
2024/04/11 13:24:42;;;;;;;;;;;;;;;;;;5478990;26;19932;-70
2024/04/11 13:27:08;;;;;;;;;;;;;;;;;;5478993;26;19932;-71
2024/04/11 13:29:36;;;;;;;;;;;;;;;;;;5471150;26;19940;-71
2024/04/11 13:32:04;;;;;;;;;;;;;;;;;;5442817;26;20381;-72
2024/04/11 13:34:50;;;;;;;;;;;;;;;;;;5443946;26;19970;-71
2024/04/11 13:37:16;;;;;;;;;;;;;;;;;;5444853;26;19935;-71
2024/04/11 13:40:57;;;;;;;;;;;;;;;;;;5444599;26;20538;-71
2024/04/11 13:42:46;;;;;;;;;;;;;;;;;;5461900;26;20387;-71
2024/04/11 13:45:22;;;;;;;;;;;;;;;;;;5480227;26;19940;-72
2024/04/11 13:47:50;;;;;;;;;;;;;;;;;;5478581;26;20695;-71
2024/04/11 13:50:34;;;;;;;;;;;;;;;;;;5482768;26;19928;-71
2024/04/11 13:53:04;;;;;;;;;;;;;;;;;;5483207;26;20018;-71
2024/04/11 13:55:30;;;;;;;;;;;;;;;;;;5482226;26;20255;-71
2024/04/11 13:57:59;;;;;;;;;;;;;;;;;;5481635;26;19939;-71
2024/04/11 14:00:26;;;;;;;;;;;;;;;;;;5482421;26;19931;-72
2024/04/11 14:03:16;;;;;;;;;;;;;;;;;;5482448;26;20401;-71
2024/04/11 14:05:45;;;;;;;;;;;;;;;;;;5446238;26;19929;-71
2024/04/11 14:08:18;;;;;;;;;;;;;;;;;;5473606;26;20328;-71
2024/04/11 14:10:45;;;;;;;;;;;;;;;;;;5484525;26;19947;-71
2024/04/11 14:13:15;;;;;;;;;;;;;;;;;;5484492;26;19935;-72
2024/04/11 14:15:44;;;;;;;;;;;;;;;;;;5483446;26;20278;-71
2024/04/11 14:18:17;;;;;;;;;;;;;;;;;;5482512;26;20367;-71
2024/04/11 14:20:50;;;;;;;;;;;;;;;;;;5480811;26;20319;-71
2024/04/11 14:23:32;;;;;;;;;;;;;;;;;;5481511;26;19936;-71
2024/04/11 14:26:05;;;;;;;;;;;;;;;;;;5481806;26;19928;-71
2024/04/11 14:28:35;;;;;;;;;;;;;;;;;;5481493;26;19943;-72
2024/04/11 14:31:08;;;;;;;;;;;;;;;;;;5482001;26;19927;-71
2024/04/11 14:34:19;;;;;;;;;;;;;;;;;;5481823;26;20341;-71
2024/04/11 14:36:36;;;;;;;;;;;;;;;;;;5482699;26;19968;-72
2024/04/11 14:39:08;;;;;;;;;;;;;;;;;;5453151;26;19928;-72
2024/04/11 14:41:35;;;;;;;;;;;;;;;;;;5445542;26;19968;-71
2024/04/11 14:44:08;;;;;;;;;;;;;;;;;;5445417;26;19929;-71
2024/04/11 14:46:34;;;;;;;;;;;;;;;;;;5445081;26;19928;-71
2024/04/11 14:49:04;;;;;;;;;;;;;;;;;;5445072;26;19964;-71
2024/04/11 14:51:40;;;;;;;;;;;;;;;;;;5444950;26;19928;-71
2024/04/11 14:54:15;;;;;;;;;;;;;;;;;;5446145;26;19929;-71
2024/04/11 14:56:41;;;;;;;;;;;;;;;;;;5443878;26;19964;-72
2024/04/11 14:59:10;;;;;;;;;;;;;;;;;;5445690;26;19929;-71
2024/04/11 15:01:43;;;;;;;;;;;;;;;;;;5447803;26;19974;-72
2024/04/11 15:04:11;;;;;;;;;;;;;;;;;;5447108;26;19933;-71
2024/04/11 15:06:37;;;;;;;;;;;;;;;;;;5478497;26;19935;-71
2024/04/11 15:09:26;;;;;;;;;;;;;;;;;;5482917;26;19936;-71
2024/04/11 15:11:52;;;;;;;;;;;;;;;;;;5479864;26;19939;-71
2024/04/11 15:14:23;;;;;;;;;;;;;;;;;;5481420;26;20216;-72
2024/04/11 15:16:49;;;;;;;;;;;;;;;;;;5481328;26;19928;-72
2024/04/11 15:19:20;;;;;;;;;;;;;;;;;;5480658;26;19967;-71
2024/04/11 15:21:47;;;;;;;;;;;;;;;;;;5480743;26;19928;-72
2024/04/11 15:24:18;;;;;;;;;;;;;;;;;;5480459;26;20014;-72
2024/04/11 15:26:47;;;;;;;;;;;;;;;;;;5482470;26;20371;-71
2024/04/11 15:29:21;;;;;;;;;;;;;;;;;;5481808;26;20278;-71
2024/04/11 15:32:04;;;;;;;;;;;;;;;;;;5481251;26;19943;-72
2024/04/11 15:34:41;;;;;;;;;;;;;;;;;;5480515;26;19928;-71
2024/04/11 15:37:27;;;;;;;;;;;;;;;;;;5481117;26;20240;-70
2024/04/11 15:40:00;;;;;;;;;;;;;;;;;;5480952;26;19928;-70
2024/04/11 15:42:26;;;;;;;;;;;;;;;;;;5480256;26;19928;-72
2024/04/11 15:44:54;;;;;;;;;;;;;;;;;;5480860;26;19928;-70
2024/04/11 15:47:21;;;;;;;;;;;;;;;;;;5446712;26;19935;-73
2024/04/11 15:49:57;;;;;;;;;;;;;;;;;;5447328;26;19928;-71
2024/04/11 15:52:28;;;;;;;;;;;;;;;;;;5446085;26;19933;-70
2024/04/11 15:55:08;;;;;;;;;;;;;;;;;;5446530;26;19939;-71
2024/04/11 15:57:38;;;;;;;;;;;;;;;;;;5445289;26;19928;-71
2024/04/11 16:00:10;;;;;;;;;;;;;;;;;;5444916;26;20365;-70
2024/04/11 16:02:40;;;;;;;;;;;;;;;;;;5445004;26;20034;-71
2024/04/11 16:05:24;;;;;;;;;;;;;;;;;;5444019;26;19937;-70
2024/04/11 16:07:56;;;;;;;;;;;;;;;;;;5444279;26;19928;-71
2024/04/11 16:10:24;;;;;;;;;;;;;;;;;;5453941;26;19936;-71
2024/04/11 16:12:51;;;;;;;;;;;;;;;;;;5480298;26;20412;-71
2024/04/11 16:15:19;;;;;;;;;;;;;;;;;;5480202;26;19935;-71
2024/04/11 16:17:45;;;;;;;;;;;;;;;;;;5480246;26;20381;-71
2024/04/11 16:20:15;;;;;;;;;;;;;;;;;;5478927;26;19952;-71
2024/04/11 16:22:44;;;;;;;;;;;;;;;;;;5481540;26;19928;-70
2024/04/11 16:25:19;;;;;;;;;;;;;;;;;;5481687;26;20020;-71
2024/04/11 16:27:45;;;;;;;;;;;;;;;;;;5482297;26;19932;-71
2024/04/11 16:30:28;;;;;;;;;;;;;;;;;;5482257;26;20456;-70
2024/04/11 16:32:56;;;;;;;;;;;;;;;;;;5461918;26;19932;-70
2024/04/11 16:35:25;;;;;;;;;;;;;;;;;;5446337;26;19938;-71
2024/04/11 16:38:07;;;;;;;;;;;;;;;;;;5446144;26;19948;-70
2024/04/11 16:40:37;;;;;;;;;;;;;;;;;;5443957;26;19936;-71
2024/04/11 16:43:03;;;;;;;;;;;;;;;;;;5443657;26;20320;-71
2024/04/11 16:45:41;;;;;;;;;;;;;;;;;;5443489;26;19929;-70
2024/04/11 16:48:07;;;;;;;;;;;;;;;;;;5443740;26;19944;-71
2024/04/11 16:50:45;;;;;;;;;;;;;;;;;;5443274;26;19962;-71
2024/04/11 16:53:16;;;;;;;;;;;;;;;;;;5444353;26;19928;-71
2024/04/11 16:55:47;;;;;;;;;;;;;;;;;;5443192;26;19964;-71
2024/04/11 16:58:20;;;;;;;;;;;;;;;;;;5442861;26;19941;-71
2024/04/11 17:00:49;;;;;;;;;;;;;;;;;;5458989;26;20571;-71